sensor_id;sensor_type;location;lat;lon;timestamp;pressure;altitude;pressure_sealevel;temperature;humidity
65394;BME280;52002;49.760;6.512;2022-07-29T00:00:56;99750.16;;;21.16;49.51
65394;BME280;52002;49.760;6.512;2022-07-29T00:03:22;99744.53;;;21.11;49.71
65394;BME280;52002;49.760;6.512;2022-07-29T00:05:48;99749.75;;;21.05;49.82
65394;BME280;52002;49.760;6.512;2022-07-29T00:08:14;99748.62;;;21.04;49.83
65394;BME280;52002;49.760;6.512;2022-07-29T00:10:41;99735.38;;;20.98;49.53
65394;BME280;52002;49.760;6.512;2022-07-29T00:13:07;99739.13;;;20.97;49.49
65394;BME280;52002;49.760;6.512;2022-07-29T00:15:33;99736.42;;;20.97;49.49
65394;BME280;52002;49.760;6.512;2022-07-29T00:17:59;99735.38;;;20.98;49.72
65394;BME280;52002;49.760;6.512;2022-07-29T00:20:25;99734.75;;;20.96;49.42
65394;BME280;52002;49.760;6.512;2022-07-29T00:22:51;99738.59;;;20.98;49.80
65394;BME280;52002;49.760;6.512;2022-07-29T00:25:17;99742.25;;;21.01;50.06
65394;BME280;52002;49.760;6.512;2022-07-29T00:27:43;99736.83;;;21.01;50.25
65394;BME280;52002;49.760;6.512;2022-07-29T00:30:09;99732.22;;;21.01;50.39
65394;BME280;52002;49.760;6.512;2022-07-29T00:32:35;99731.70;;;21.02;50.20
65394;BME280;52002;49.760;6.512;2022-07-29T00:35:01;99734.64;;;21.00;50.23
65394;BME280;52002;49.760;6.512;2022-07-29T00:37:46;99731.31;;;20.98;50.24
65394;BME280;52002;49.760;6.512;2022-07-29T00:40:12;99712.75;;;20.88;50.27
65394;BME280;52002;49.760;6.512;2022-07-29T00:42:46;99717.88;;;20.81;50.51
65394;BME280;52002;49.760;6.512;2022-07-29T00:45:15;99718.90;;;20.73;50.40
65394;BME280;52002;49.760;6.512;2022-07-29T00:47:41;99713.90;;;20.63;50.24
65394;BME280;52002;49.760;6.512;2022-07-29T00:50:08;99710.76;;;20.53;50.13
65394;BME280;52002;49.760;6.512;2022-07-29T00:52:37;99709.95;;;20.45;50.13
65394;BME280;52002;49.760;6.512;2022-07-29T00:55:05;99710.87;;;20.35;50.15
65394;BME280;52002;49.760;6.512;2022-07-29T00:57:34;99714.11;;;20.28;50.15
65394;BME280;52002;49.760;6.512;2022-07-29T01:00:03;99711.19;;;20.23;50.02
65394;BME280;52002;49.760;6.512;2022-07-29T01:02:31;99710.96;;;20.17;50.12
65394;BME280;52002;49.760;6.512;2022-07-29T01:04:57;99712.31;;;20.17;50.23
65394;BME280;52002;49.760;6.512;2022-07-29T01:07:24;99713.26;;;20.14;50.50
65394;BME280;52002;49.760;6.512;2022-07-29T01:09:52;99711.36;;;20.08;51.10
65394;BME280;52002;49.760;6.512;2022-07-29T01:12:25;99711.36;;;20.08;51.10
65394;BME280;52002;49.760;6.512;2022-07-29T01:14:52;99705.53;;;20.04;51.15
65394;BME280;52002;49.760;6.512;2022-07-29T01:17:26;99710.72;;;19.99;51.14
65394;BME280;52002;49.760;6.512;2022-07-29T01:31:15;99700.62;;;19.66;51.47
65394;BME280;52002;49.760;6.512;2022-07-29T01:33:44;99702.09;;;19.62;51.79
65394;BME280;52002;49.760;6.512;2022-07-29T01:36:22;99695.41;;;19.58;52.35
65394;BME280;52002;49.760;6.512;2022-07-29T01:39:32;99701.75;;;19.54;52.75
65394;BME280;52002;49.760;6.512;2022-07-29T01:42:05;99700.98;;;19.49;52.79
65394;BME280;52002;49.760;6.512;2022-07-29T01:44:55;99703.27;;;19.46;52.67
65394;BME280;52002;49.760;6.512;2022-07-29T01:47:25;99701.17;;;19.41;52.60
65394;BME280;52002;49.760;6.512;2022-07-29T01:49:56;99697.62;;;19.40;52.44
65394;BME280;52002;49.760;6.512;2022-07-29T01:52:27;99698.47;;;19.41;52.52
65394;BME280;52002;49.760;6.512;2022-07-29T01:54:57;99698.47;;;19.41;52.39
65394;BME280;52002;49.760;6.512;2022-07-29T01:57:27;99702.53;;;19.41;52.27
65394;BME280;52002;49.760;6.512;2022-07-29T01:59:56;99703.25;;;19.39;52.36
65394;BME280;52002;49.760;6.512;2022-07-29T02:02:23;99703.96;;;19.37;52.46
65394;BME280;52002;49.760;6.512;2022-07-29T02:04:50;99707.70;;;19.36;52.35
65394;BME280;52002;49.760;6.512;2022-07-29T02:07:20;99712.59;;;19.30;52.08
65394;BME280;52002;49.760;6.512;2022-07-29T02:09:47;99710.67;;;19.23;51.97
65394;BME280;52002;49.760;6.512;2022-07-29T02:12:16;99707.73;;;19.18;52.31
65394;BME280;52002;49.760;6.512;2022-07-29T02:14:51;99708.97;;;19.16;52.35
65394;BME280;52002;49.760;6.512;2022-07-29T02:17:25;99703.92;;;19.06;52.36
65394;BME280;52002;49.760;6.512;2022-07-29T02:19:58;99706.59;;;18.99;52.52
65394;BME280;52002;49.760;6.512;2022-07-29T02:22:28;99707.20;;;18.94;53.60
65394;BME280;52002;49.760;6.512;2022-07-29T02:24:57;99704.53;;;18.90;53.92
65394;BME280;52002;49.760;6.512;2022-07-29T02:27:25;99706.17;;;18.85;53.23
65394;BME280;52002;49.760;6.512;2022-07-29T02:29:53;99708.73;;;18.82;53.32
65394;BME280;52002;49.760;6.512;2022-07-29T02:32:21;99706.31;;;18.76;53.33
65394;BME280;52002;49.760;6.512;2022-07-29T02:34:48;99708.58;;;18.73;53.26
65394;BME280;52002;49.760;6.512;2022-07-29T02:37:16;99716.88;;;18.71;53.23
65394;BME280;52002;49.760;6.512;2022-07-29T02:39:44;99712.91;;;18.67;53.26
65394;BME280;52002;49.760;6.512;2022-07-29T02:42:15;99711.95;;;18.64;53.50
65394;BME280;52002;49.760;6.512;2022-07-29T02:44:43;99713.30;;;18.64;54.22
65394;BME280;52002;49.760;6.512;2022-07-29T02:47:30;99715.89;;;18.61;54.06
65394;BME280;52002;49.760;6.512;2022-07-29T02:50:04;99711.37;;;18.58;53.74
65394;BME280;52002;49.760;6.512;2022-07-29T02:52:43;99720.02;;;18.57;53.74
65394;BME280;52002;49.760;6.512;2022-07-29T02:55:32;99717.17;;;18.55;53.63
65394;BME280;52002;49.760;6.512;2022-07-29T03:00:56;99721.87;;;18.57;53.98
65394;BME280;52002;49.760;6.512;2022-07-29T03:03:28;99722.25;;;18.54;53.92
65394;BME280;52002;49.760;6.512;2022-07-29T03:05:57;99724.07;;;18.57;54.13
65394;BME280;52002;49.760;6.512;2022-07-29T03:08:26;99717.42;;;18.60;54.03
65394;BME280;52002;49.760;6.512;2022-07-29T03:10:53;99725.03;;;18.60;53.89
65394;BME280;52002;49.760;6.512;2022-07-29T03:13:19;99729.09;;;18.60;54.43
65394;BME280;52002;49.760;6.512;2022-07-29T03:15:46;99732.89;;;18.55;54.86
65394;BME280;52002;49.760;6.512;2022-07-29T03:18:13;99728.40;;;18.52;55.09
65394;BME280;52002;49.760;6.512;2022-07-29T03:20:40;99724.91;;;18.47;55.15
65394;BME280;52002;49.760;6.512;2022-07-29T03:23:06;99724.36;;;18.41;54.82
65394;BME280;52002;49.760;6.512;2022-07-29T03:25:33;99728.15;;;18.35;54.88
65394;BME280;52002;49.760;6.512;2022-07-29T03:28:00;99728.91;;;18.29;54.79
65394;BME280;52002;49.760;6.512;2022-07-29T03:30:26;99725.45;;;18.25;54.84
65394;BME280;52002;49.760;6.512;2022-07-29T03:32:52;99728.03;;;18.22;54.78
65394;BME280;52002;49.760;6.512;2022-07-29T03:35:19;99722.69;;;18.18;54.77
65394;BME280;52002;49.760;6.512;2022-07-29T03:37:46;99730.20;;;18.12;54.54
65394;BME280;52002;49.760;6.512;2022-07-29T03:40:15;99730.34;;;18.03;54.51
65394;BME280;52002;49.760;6.512;2022-07-29T03:42:49;99724.67;;;17.98;54.44
65394;BME280;52002;49.760;6.512;2022-07-29T03:45:18;99724.78;;;17.90;54.65
65394;BME280;52002;49.760;6.512;2022-07-29T03:47:51;99729.16;;;17.91;54.66
65394;BME280;52002;49.760;6.512;2022-07-29T03:50:17;99730.69;;;17.89;54.71
65394;BME280;52002;49.760;6.512;2022-07-29T03:52:45;99725.86;;;17.85;54.75
65394;BME280;52002;49.760;6.512;2022-07-29T03:55:11;99727.97;;;17.79;54.80
65394;BME280;52002;49.760;6.512;2022-07-29T03:57:38;99728.67;;;17.77;54.86
65394;BME280;52002;49.760;6.512;2022-07-29T04:00:06;99724.17;;;17.73;54.90
65394;BME280;52002;49.760;6.512;2022-07-29T04:02:33;99725.40;;;17.70;54.93
65394;BME280;52002;49.760;6.512;2022-07-29T04:04:59;99727.24;;;17.70;55.04
65394;BME280;52002;49.760;6.512;2022-07-29T04:07:25;99731.83;;;17.69;55.23
65394;BME280;52002;49.760;6.512;2022-07-29T04:09:51;99726.30;;;17.67;55.34
65394;BME280;52002;49.760;6.512;2022-07-29T04:12:17;99730.52;;;17.65;55.41
65394;BME280;52002;49.760;6.512;2022-07-29T04:14:43;99724.15;;;17.62;55.60
65394;BME280;52002;49.760;6.512;2022-07-29T04:17:09;99728.20;;;17.62;55.65
65394;BME280;52002;49.760;6.512;2022-07-29T04:19:35;99731.92;;;17.61;55.62
65394;BME280;52002;49.760;6.512;2022-07-29T04:22:01;99737.52;;;17.59;55.61
65394;BME280;52002;49.760;6.512;2022-07-29T04:24:27;99738.09;;;17.55;55.70
65394;BME280;52002;49.760;6.512;2022-07-29T04:26:53;99739.48;;;17.51;56.00
65394;BME280;52002;49.760;6.512;2022-07-29T04:29:19;99742.19;;;17.51;56.25
65394;BME280;52002;49.760;6.512;2022-07-29T04:31:45;99746.56;;;17.52;56.39
65394;BME280;52002;49.760;6.512;2022-07-29T04:34:12;99750.61;;;17.52;56.47
65394;BME280;52002;49.760;6.512;2022-07-29T04:36:38;99756.83;;;17.52;56.54
65394;BME280;52002;49.760;6.512;2022-07-29T04:39:04;99758.83;;;17.54;56.62
65394;BME280;52002;49.760;6.512;2022-07-29T04:41:30;99757.69;;;17.53;56.59
65394;BME280;52002;49.760;6.512;2022-07-29T04:43:56;99762.38;;;17.55;56.66
65394;BME280;52002;49.760;6.512;2022-07-29T04:46:22;99770.48;;;17.55;56.51
65394;BME280;52002;49.760;6.512;2022-07-29T04:48:48;99766.80;;;17.52;56.50
65394;BME280;52002;49.760;6.512;2022-07-29T04:51:15;99769.70;;;17.50;56.56
65394;BME280;52002;49.760;6.512;2022-07-29T04:53:41;99769.50;;;17.52;56.60
65394;BME280;52002;49.760;6.512;2022-07-29T04:56:07;99759.03;;;17.53;56.61
65394;BME280;52002;49.760;6.512;2022-07-29T04:58:36;99758.38;;;17.51;56.69
65394;BME280;52002;49.760;6.512;2022-07-29T05:01:03;99761.08;;;17.51;56.81
65394;BME280;52002;49.760;6.512;2022-07-29T05:03:29;99772.41;;;17.50;57.00
65394;BME280;52002;49.760;6.512;2022-07-29T05:05:55;99765.95;;;17.51;57.05
65394;BME280;52002;49.760;6.512;2022-07-29T05:08:21;99765.09;;;17.55;57.03
65394;BME280;52002;49.760;6.512;2022-07-29T05:10:47;99771.79;;;17.59;56.98
65394;BME280;52002;49.760;6.512;2022-07-29T05:13:13;99770.52;;;17.66;56.85
65394;BME280;52002;49.760;6.512;2022-07-29T05:15:39;99776.32;;;17.73;56.84
65394;BME280;52002;49.760;6.512;2022-07-29T05:18:05;99779.87;;;17.85;56.75
65394;BME280;52002;49.760;6.512;2022-07-29T05:20:32;99774.28;;;17.97;56.60
65394;BME280;52002;49.760;6.512;2022-07-29T05:23:00;99775.80;;;18.11;56.42
65394;BME280;52002;49.760;6.512;2022-07-29T05:25:27;99772.30;;;18.21;56.25
65394;BME280;52002;49.760;6.512;2022-07-29T05:27:54;99777.00;;;18.34;55.99
65394;BME280;52002;49.760;6.512;2022-07-29T05:30:21;99774.80;;;18.44;55.82
65394;BME280;52002;49.760;6.512;2022-07-29T05:32:47;99775.11;;;18.56;55.59
65394;BME280;52002;49.760;6.512;2022-07-29T05:35:14;99781.72;;;18.64;55.46
65394;BME280;52002;49.760;6.512;2022-07-29T05:37:40;99772.45;;;18.74;55.25
65394;BME280;52002;49.760;6.512;2022-07-29T05:40:07;99773.25;;;18.85;55.07
65394;BME280;52002;49.760;6.512;2022-07-29T05:42:34;99781.91;;;18.95;54.87
65394;BME280;52002;49.760;6.512;2022-07-29T05:45:01;99774.02;;;19.01;54.75
65394;BME280;52002;49.760;6.512;2022-07-29T05:47:28;99776.97;;;19.06;54.56
65394;BME280;52002;49.760;6.512;2022-07-29T05:49:54;99781.28;;;19.11;54.42
65394;BME280;52002;49.760;6.512;2022-07-29T05:52:20;99779.92;;;19.11;54.33
65394;BME280;52002;49.760;6.512;2022-07-29T05:54:47;99781.60;;;19.12;54.27
65394;BME280;52002;49.760;6.512;2022-07-29T05:57:21;99778.30;;;19.17;54.21
65394;BME280;52002;49.760;6.512;2022-07-29T05:59:49;99787.16;;;19.21;54.01
65394;BME280;52002;49.760;6.512;2022-07-29T06:02:16;99786.05;;;19.26;53.87
65394;BME280;52002;49.760;6.512;2022-07-29T06:04:43;99784.52;;;19.35;53.82
65394;BME280;52002;49.760;6.512;2022-07-29T06:07:09;99789.79;;;19.43;53.56
65394;BME280;52002;49.760;6.512;2022-07-29T06:09:36;99784.72;;;19.51;53.35
65394;BME280;52002;49.760;6.512;2022-07-29T06:12:03;99787.25;;;19.59;53.06
65394;BME280;52002;49.760;6.512;2022-07-29T06:14:29;99796.03;;;19.68;52.91
65394;BME280;52002;49.760;6.512;2022-07-29T06:16:55;99795.55;;;19.75;52.69
65394;BME280;52002;49.760;6.512;2022-07-29T06:19:21;99797.57;;;19.84;52.69
65394;BME280;52002;49.760;6.512;2022-07-29T06:21:47;99794.11;;;19.97;52.61
65394;BME280;52002;49.760;6.512;2022-07-29T06:24:14;99790.16;;;20.06;52.37
65394;BME280;52002;49.760;6.512;2022-07-29T06:26:41;99789.23;;;20.16;52.28
65394;BME280;52002;49.760;6.512;2022-07-29T06:29:09;99789.78;;;20.23;52.33
65394;BME280;52002;49.760;6.512;2022-07-29T06:31:39;99790.84;;;20.35;52.06
65394;BME280;52002;49.760;6.512;2022-07-29T06:34:05;99792.95;;;20.46;51.72
65394;BME280;52002;49.760;6.512;2022-07-29T06:36:34;99791.29;;;20.59;51.63
65394;BME280;52002;49.760;6.512;2022-07-29T06:39:04;99794.31;;;20.67;51.30
65394;BME280;52002;49.760;6.512;2022-07-29T06:41:31;99791.28;;;20.72;51.50
65394;BME280;52002;49.760;6.512;2022-07-29T06:43:57;99792.98;;;20.80;50.78
65394;BME280;52002;49.760;6.512;2022-07-29T06:46:23;99789.53;;;20.89;50.38
65394;BME280;52002;49.760;6.512;2022-07-29T06:48:49;99795.16;;;21.01;49.98
65394;BME280;52002;49.760;6.512;2022-07-29T06:51:16;99796.01;;;21.08;49.57
65394;BME280;52002;49.760;6.512;2022-07-29T06:53:42;99800.16;;;21.17;49.31
65394;BME280;52002;49.760;6.512;2022-07-29T06:56:08;99797.31;;;21.28;49.22
65394;BME280;52002;49.760;6.512;2022-07-29T06:58:34;99799.59;;;21.38;49.14
65394;BME280;52002;49.760;6.512;2022-07-29T07:01:03;99799.15;;;21.48;48.59
65394;BME280;52002;49.760;6.512;2022-07-29T07:03:30;99799.44;;;21.62;48.26
65394;BME280;52002;49.760;6.512;2022-07-29T07:05:56;99801.42;;;21.64;48.22
65394;BME280;52002;49.760;6.512;2022-07-29T07:08:23;99805.55;;;21.74;47.88
65394;BME280;52002;49.760;6.512;2022-07-29T07:10:50;99807.92;;;21.86;47.75
65394;BME280;52002;49.760;6.512;2022-07-29T07:13:17;99803.58;;;21.94;47.38
65394;BME280;52002;49.760;6.512;2022-07-29T07:15:44;99806.80;;;22.01;47.00
65394;BME280;52002;49.760;6.512;2022-07-29T07:18:10;99807.16;;;22.11;46.97
65394;BME280;52002;49.760;6.512;2022-07-29T07:20:36;99809.48;;;22.23;46.98
65394;BME280;52002;49.760;6.512;2022-07-29T07:23:02;99806.23;;;22.40;46.31
65394;BME280;52002;49.760;6.512;2022-07-29T07:25:28;99801.06;;;22.54;45.77
65394;BME280;52002;49.760;6.512;2022-07-29T07:27:54;99799.29;;;22.67;45.17
65394;BME280;52002;49.760;6.512;2022-07-29T07:30:20;99802.64;;;22.78;44.88
65394;BME280;52002;49.760;6.512;2022-07-29T07:32:46;99807.96;;;22.92;44.76
65394;BME280;52002;49.760;6.512;2022-07-29T07:35:13;99800.28;;;23.07;44.67
65394;BME280;52002;49.760;6.512;2022-07-29T07:37:39;99790.98;;;23.22;44.72
65394;BME280;52002;49.760;6.512;2022-07-29T07:40:09;99795.83;;;23.38;44.26
65394;BME280;52002;49.760;6.512;2022-07-29T07:42:40;99798.25;;;23.56;43.93
65394;BME280;52002;49.760;6.512;2022-07-29T07:45:07;99789.52;;;23.75;43.50
65394;BME280;52002;49.760;6.512;2022-07-29T07:47:37;99788.73;;;23.95;43.10
65394;BME280;52002;49.760;6.512;2022-07-29T07:50:09;99786.50;;;24.14;42.71
65394;BME280;52002;49.760;6.512;2022-07-29T07:52:51;99788.27;;;24.29;42.35
65394;BME280;52002;49.760;6.512;2022-07-29T07:55:15;99787.84;;;24.44;42.02
65394;BME280;52002;49.760;6.512;2022-07-29T07:57:41;99779.39;;;24.55;41.59
65394;BME280;52002;49.760;6.512;2022-07-29T08:00:07;99784.95;;;24.60;41.02
65394;BME280;52002;49.760;6.512;2022-07-29T08:02:33;99783.42;;;24.64;40.91
65394;BME280;52002;49.760;6.512;2022-07-29T08:04:59;99787.65;;;24.69;40.63
65394;BME280;52002;49.760;6.512;2022-07-29T08:07:25;99785.48;;;24.81;40.46
65394;BME280;52002;49.760;6.512;2022-07-29T08:09:51;99788.58;;;24.96;40.23
65394;BME280;52002;49.760;6.512;2022-07-29T08:12:17;99789.90;;;25.06;39.88
65394;BME280;52002;49.760;6.512;2022-07-29T08:14:43;99789.89;;;25.18;40.07
65394;BME280;52002;49.760;6.512;2022-07-29T08:17:08;99792.84;;;25.28;39.38
65394;BME280;52002;49.760;6.512;2022-07-29T08:19:34;99787.25;;;25.35;39.48
65394;BME280;52002;49.760;6.512;2022-07-29T08:22:01;99801.70;;;25.44;39.24
65394;BME280;52002;49.760;6.512;2022-07-29T08:24:27;99800.80;;;25.53;39.20
65394;BME280;52002;49.760;6.512;2022-07-29T08:27:10;99804.80;;;25.63;39.26
65394;BME280;52002;49.760;6.512;2022-07-29T08:29:37;99802.77;;;25.70;38.98
65394;BME280;52002;49.760;6.512;2022-07-29T08:32:03;99799.16;;;25.81;38.83
65394;BME280;52002;49.760;6.512;2022-07-29T08:34:30;99805.03;;;25.87;38.46
65394;BME280;52002;49.760;6.512;2022-07-29T08:36:56;99810.40;;;25.97;38.46
65394;BME280;52002;49.760;6.512;2022-07-29T08:39:23;99801.23;;;26.03;38.36
65394;BME280;52002;49.760;6.512;2022-07-29T08:41:51;99806.95;;;26.01;37.90
65394;BME280;52002;49.760;6.512;2022-07-29T08:44:19;99802.78;;;25.99;37.96
65394;BME280;52002;49.760;6.512;2022-07-29T08:46:47;99797.72;;;25.90;37.95
65394;BME280;52002;49.760;6.512;2022-07-29T08:49:15;99799.27;;;25.86;38.01
65394;BME280;52002;49.760;6.512;2022-07-29T08:51:42;99805.14;;;25.78;37.93
65394;BME280;52002;49.760;6.512;2022-07-29T08:54:09;99805.50;;;25.70;37.89
65394;BME280;52002;49.760;6.512;2022-07-29T08:56:36;99808.13;;;25.65;37.88
65394;BME280;52002;49.760;6.512;2022-07-29T08:59:05;99811.37;;;25.62;38.07
65394;BME280;52002;49.760;6.512;2022-07-29T09:04:04;99798.52;;;25.62;38.08
65394;BME280;52002;49.760;6.512;2022-07-29T09:06:37;99805.01;;;25.58;38.03
65394;BME280;52002;49.760;6.512;2022-07-29T09:09:05;99801.98;;;25.57;37.97
65394;BME280;52002;49.760;6.512;2022-07-29T09:11:34;99802.75;;;25.55;38.08
65394;BME280;52002;49.760;6.512;2022-07-29T09:14:00;99804.08;;;25.53;38.14
65394;BME280;52002;49.760;6.512;2022-07-29T09:16:48;99801.86;;;25.52;38.20
65394;BME280;52002;49.760;6.512;2022-07-29T09:21:54;99792.12;;;25.56;38.25
65394;BME280;52002;49.760;6.512;2022-07-29T09:24:24;99802.58;;;25.59;38.20
65394;BME280;52002;49.760;6.512;2022-07-29T09:26:51;99794.97;;;25.62;38.14
65394;BME280;52002;49.760;6.512;2022-07-29T09:29:20;99796.59;;;25.63;38.04
65394;BME280;52002;49.760;6.512;2022-07-29T09:31:50;99795.83;;;25.65;37.93
65394;BME280;52002;49.760;6.512;2022-07-29T09:36:52;99796.86;;;25.75;37.93
65394;BME280;52002;49.760;6.512;2022-07-29T09:39:34;99790.73;;;25.83;37.87
65394;BME280;52002;49.760;6.512;2022-07-29T09:42:04;99795.47;;;25.87;37.81
65394;BME280;52002;49.760;6.512;2022-07-29T09:44:43;99790.00;;;25.87;37.44
65394;BME280;52002;49.760;6.512;2022-07-29T09:47:14;99788.73;;;25.93;37.43
65394;BME280;52002;49.760;6.512;2022-07-29T09:49:54;99782.56;;;26.00;37.26
65394;BME280;52002;49.760;6.512;2022-07-29T09:52:23;99780.23;;;26.06;37.16
65394;BME280;52002;49.760;6.512;2022-07-29T09:54:49;99774.94;;;26.14;37.16
65394;BME280;52002;49.760;6.512;2022-07-29T09:57:26;99787.41;;;26.24;36.79
65394;BME280;52002;49.760;6.512;2022-07-29T10:00:01;99774.45;;;26.34;36.75
65394;BME280;52002;49.760;6.512;2022-07-29T10:02:37;99775.73;;;26.43;36.64
65394;BME280;52002;49.760;6.512;2022-07-29T10:05:20;99771.29;;;26.57;36.41
65394;BME280;52002;49.760;6.512;2022-07-29T10:07:53;99769.08;;;26.73;36.31
65394;BME280;52002;49.760;6.512;2022-07-29T10:10:27;99770.72;;;26.89;35.71
65394;BME280;52002;49.760;6.512;2022-07-29T10:12:57;99773.16;;;27.05;35.52
65394;BME280;52002;49.760;6.512;2022-07-29T10:15:29;99771.23;;;27.25;35.06
65394;BME280;52002;49.760;6.512;2022-07-29T10:17:59;99767.90;;;27.42;34.56
65394;BME280;52002;49.760;6.512;2022-07-29T10:20:27;99770.28;;;27.56;34.42
65394;BME280;52002;49.760;6.512;2022-07-29T10:22:53;99778.87;;;27.62;33.32
65394;BME280;52002;49.760;6.512;2022-07-29T10:25:21;99774.47;;;27.61;32.79
65394;BME280;52002;49.760;6.512;2022-07-29T10:27:48;99772.91;;;27.70;32.42
65394;BME280;52002;49.760;6.512;2022-07-29T10:30:17;99775.00;;;27.83;32.11
65394;BME280;52002;49.760;6.512;2022-07-29T10:33:14;99780.08;;;27.96;32.33
65394;BME280;52002;49.760;6.512;2022-07-29T10:44:08;99778.59;;;28.38;30.37
65394;BME280;52002;49.760;6.512;2022-07-29T10:46:38;99777.88;;;28.53;30.24
65394;BME280;52002;49.760;6.512;2022-07-29T10:49:22;99774.16;;;28.70;30.08
65394;BME280;52002;49.760;6.512;2022-07-29T10:54:39;99775.00;;;29.08;29.55
65394;BME280;52002;49.760;6.512;2022-07-29T11:05:13;99777.59;;;29.89;28.67
65394;BME280;52002;49.760;6.512;2022-07-29T11:10:44;99771.34;;;30.14;28.01
65394;BME280;52002;49.760;6.512;2022-07-29T11:13:10;99773.28;;;30.34;28.00
65394;BME280;52002;49.760;6.512;2022-07-29T11:15:57;99776.59;;;30.36;27.68
65394;BME280;52002;49.760;6.512;2022-07-29T11:18:20;99776.31;;;30.43;27.86
65394;BME280;52002;49.760;6.512;2022-07-29T11:20:49;99777.72;;;30.71;27.71
65394;BME280;52002;49.760;6.512;2022-07-29T11:23:29;99771.89;;;30.99;27.59
65394;BME280;52002;49.760;6.512;2022-07-29T11:26:15;99770.48;;;31.22;26.78
65394;BME280;52002;49.760;6.512;2022-07-29T11:31:46;99769.24;;;31.59;26.27
65394;BME280;52002;49.760;6.512;2022-07-29T11:39:39;99763.13;;;31.62;25.53
65394;BME280;52002;49.760;6.512;2022-07-29T11:47:48;99767.32;;;32.50;25.01
65394;BME280;52002;49.760;6.512;2022-07-29T11:50:38;99765.23;;;32.68;24.56
65394;BME280;52002;49.760;6.512;2022-07-29T11:52:56;99756.86;;;32.76;24.19
65394;BME280;52002;49.760;6.512;2022-07-29T11:55:23;99759.66;;;32.71;23.78
65394;BME280;52002;49.760;6.512;2022-07-29T11:57:55;99751.18;;;32.62;23.63
65394;BME280;52002;49.760;6.512;2022-07-29T12:00:34;99757.31;;;32.57;23.68
65394;BME280;52002;49.760;6.512;2022-07-29T12:03:05;99763.92;;;32.58;23.67
65394;BME280;52002;49.760;6.512;2022-07-29T12:05:43;99760.61;;;32.59;23.54
65394;BME280;52002;49.760;6.512;2022-07-29T12:08:16;99760.55;;;32.64;23.47
65394;BME280;52002;49.760;6.512;2022-07-29T12:10:42;99756.73;;;32.60;23.39
65394;BME280;52002;49.760;6.512;2022-07-29T12:13:09;99757.38;;;32.46;23.49
65394;BME280;52002;49.760;6.512;2022-07-29T12:15:36;99752.86;;;32.21;23.47
65394;BME280;52002;49.760;6.512;2022-07-29T12:18:13;99754.17;;;31.94;23.48
65394;BME280;52002;49.760;6.512;2022-07-29T12:20:41;99755.66;;;31.73;23.76
65394;BME280;52002;49.760;6.512;2022-07-29T12:23:08;99750.48;;;31.54;23.94
65394;BME280;52002;49.760;6.512;2022-07-29T12:25:35;99744.27;;;31.30;23.86
65394;BME280;52002;49.760;6.512;2022-07-29T12:28:05;99746.76;;;31.11;23.81
65394;BME280;52002;49.760;6.512;2022-07-29T12:30:40;99738.29;;;30.89;23.98
65394;BME280;52002;49.760;6.512;2022-07-29T12:33:16;99752.36;;;30.72;23.91
65394;BME280;52002;49.760;6.512;2022-07-29T12:35:46;99754.30;;;30.61;24.12
65394;BME280;52002;49.760;6.512;2022-07-29T12:38:15;99755.70;;;30.56;24.55
65394;BME280;52002;49.760;6.512;2022-07-29T12:40:43;99759.55;;;30.55;24.32
65394;BME280;52002;49.760;6.512;2022-07-29T12:43:13;99752.67;;;30.55;23.38
65394;BME280;52002;49.760;6.512;2022-07-29T12:45:44;99754.56;;;30.52;22.71
65394;BME280;52002;49.760;6.512;2022-07-29T12:48:12;99744.38;;;30.39;22.11
65394;BME280;52002;49.760;6.512;2022-07-29T12:50:57;99745.73;;;30.24;22.33
65394;BME280;52002;49.760;6.512;2022-07-29T12:53:26;99748.49;;;30.11;22.79
65394;BME280;52002;49.760;6.512;2022-07-29T12:55:55;99756.72;;;30.08;22.75
65394;BME280;52002;49.760;6.512;2022-07-29T13:01:05;99746.81;;;29.97;22.37
65394;BME280;52002;49.760;6.512;2022-07-29T13:03:54;99750.95;;;30.02;23.00
65394;BME280;52002;49.760;6.512;2022-07-29T13:09:10;99748.50;;;30.19;22.74
65394;BME280;52002;49.760;6.512;2022-07-29T13:11:52;99748.49;;;30.29;22.96
65394;BME280;52002;49.760;6.512;2022-07-29T13:14:30;99757.85;;;30.43;23.05
65394;BME280;52002;49.760;6.512;2022-07-29T13:17:15;99751.27;;;30.47;23.46
65394;BME280;52002;49.760;6.512;2022-07-29T13:22:22;99731.15;;;30.70;23.48
65394;BME280;52002;49.760;6.512;2022-07-29T13:25:00;99747.65;;;30.85;23.26
65394;BME280;52002;49.760;6.512;2022-07-29T13:27:32;99749.05;;;30.80;23.81
65394;BME280;52002;49.760;6.512;2022-07-29T13:30:04;99750.72;;;30.73;24.28
65394;BME280;52002;49.760;6.512;2022-07-29T13:32:32;99758.98;;;30.68;24.34
65394;BME280;52002;49.760;6.512;2022-07-29T13:35:04;99755.95;;;30.62;24.47
65394;BME280;52002;49.760;6.512;2022-07-29T13:37:33;99753.47;;;30.63;24.68
65394;BME280;52002;49.760;6.512;2022-07-29T13:40:01;99762.28;;;30.73;24.88
65394;BME280;52002;49.760;6.512;2022-07-29T13:42:28;99754.28;;;30.87;24.82
65394;BME280;52002;49.760;6.512;2022-07-29T13:44:54;99752.31;;;31.06;24.53
65394;BME280;52002;49.760;6.512;2022-07-29T13:47:21;99751.42;;;31.28;24.32
65394;BME280;52002;49.760;6.512;2022-07-29T13:49:48;99751.03;;;31.56;24.34
65394;BME280;52002;49.760;6.512;2022-07-29T13:52:14;99752.00;;;31.88;23.79
65394;BME280;52002;49.760;6.512;2022-07-29T13:54:41;99749.80;;;32.25;23.55
65394;BME280;52002;49.760;6.512;2022-07-29T13:57:08;99747.99;;;33.30;23.25
65394;BME280;52002;49.760;6.512;2022-07-29T13:59:35;99746.12;;;36.48;21.57
65394;BME280;52002;49.760;6.512;2022-07-29T14:02:02;99748.08;;;38.47;19.36
65394;BME280;52002;49.760;6.512;2022-07-29T14:04:28;99742.51;;;39.19;18.14
65394;BME280;52002;49.760;6.512;2022-07-29T14:06:54;99736.45;;;39.46;17.50
65394;BME280;52002;49.760;6.512;2022-07-29T14:09:20;99737.88;;;41.93;16.30
65394;BME280;52002;49.760;6.512;2022-07-29T14:11:46;99729.09;;;44.92;14.68
65394;BME280;52002;49.760;6.512;2022-07-29T14:14:13;99736.48;;;47.68;12.88
65394;BME280;52002;49.760;6.512;2022-07-29T14:16:39;99721.17;;;49.10;11.51